createdAt,value
2023-05-20T06:26:22.840Z,96615.69
2023-05-20T06:28:32.745Z,96611.31
2023-05-20T06:29:34.147Z,96606.31
2023-05-20T06:31:46.948Z,96600.28
2023-05-20T06:34:00.501Z,96604.16
2023-05-20T06:36:17.576Z,96568.03
2023-05-20T06:37:19.168Z,96605.91
2023-05-20T06:38:21.207Z,96600.75
2023-05-20T06:39:22.690Z,96606.06
2023-05-20T06:40:24.137Z,96597.72
2023-05-20T06:41:26.449Z,96601.38
2023-05-20T06:43:50.581Z,96604.88
2023-05-20T06:44:54.037Z,96599.75
2023-05-20T06:45:55.592Z,96603.25
2023-05-20T06:46:57.176Z,96605.31
2023-05-20T06:47:58.660Z,96600.81
2023-05-20T06:49:00.508Z,96606.00
2023-05-20T06:50:01.916Z,96600.09
2023-05-20T06:51:04.042Z,96600.09
2023-05-20T06:53:07.932Z,96599.81
2023-05-20T06:54:09.442Z,96586.69
2023-05-20T06:55:11.321Z,96592.97
2023-05-20T06:56:12.805Z,96597.16
2023-05-20T06:57:14.214Z,96584.19
2023-05-20T06:58:15.648Z,96590.69
2023-05-20T06:59:17.826Z,96591.63
2023-05-20T07:00:19.450Z,96600.34
2023-05-20T07:01:20.958Z,96593.88
2023-05-20T07:02:23.009Z,96591.75
2023-05-20T07:03:24.484Z,96592.25
2023-05-20T07:04:25.942Z,96598.31
2023-05-20T07:05:28.926Z,96584.13
2023-05-20T07:06:31.565Z,96589.28
2023-05-20T07:07:32.969Z,96593.81
2023-05-20T07:08:34.408Z,96589.44
2023-05-20T07:09:35.844Z,96585.56
2023-05-20T07:10:37.406Z,96589.94
2023-05-20T07:11:38.912Z,96574.72
2023-05-20T07:12:40.422Z,96591.63
2023-05-20T07:13:41.837Z,96572.66
2023-05-20T07:14:43.248Z,96583.53
2023-05-20T07:15:48.037Z,96580.81
2023-05-20T07:16:49.630Z,96576.13
2023-05-20T07:17:51.196Z,96581.50
2023-05-20T07:18:52.815Z,96570.69
2023-05-20T07:19:54.209Z,96576.63
2023-05-20T07:20:56.984Z,96580.84
2023-05-20T07:21:58.443Z,96575.16
2023-05-20T07:23:01.105Z,96579.91
2023-05-20T07:24:02.537Z,96569.34
2023-05-20T07:25:04.260Z,96571.38
2023-05-20T07:26:05.922Z,96571.41
2023-05-20T07:27:08.407Z,96564.38
2023-05-20T07:28:09.995Z,96564.03
2023-05-20T07:29:11.514Z,96564.09
2023-05-20T07:30:13.057Z,96567.56
2023-05-20T07:31:14.758Z,96563.44
2023-05-20T07:32:16.804Z,96567.88
2023-05-20T07:33:19.034Z,96563.22
2023-05-20T07:34:20.652Z,96562.56
2023-05-20T07:35:22.132Z,96570.16
2023-05-20T07:36:23.730Z,96563.72
2023-05-20T07:37:25.188Z,96561.34
2023-05-20T07:38:26.924Z,96563.22
2023-05-20T07:39:29.324Z,96569.84
2023-05-20T07:40:30.917Z,96561.91
2023-05-20T07:41:32.378Z,96566.47
2023-05-20T07:42:34.253Z,96565.34
2023-05-20T07:43:35.914Z,96568.28
2023-05-20T07:44:37.350Z,96559.97
2023-05-20T07:45:38.981Z,96561.56
2023-05-20T07:46:41.799Z,96559.34
2023-05-20T07:47:43.440Z,96564.28
2023-05-20T07:48:45.346Z,96569.44
2023-05-20T07:49:46.882Z,96567.81
2023-05-20T07:50:48.319Z,96559.50
2023-05-20T07:51:49.801Z,96559.09
2023-05-20T07:52:56.398Z,96556.69
2023-05-20T07:53:58.579Z,96559.25
2023-05-20T07:54:59.997Z,96542.88
2023-05-20T07:56:01.453Z,96550.88
2023-05-20T07:57:02.910Z,96550.25
2023-05-20T07:58:04.460Z,96548.25
2023-05-20T07:59:06.073Z,96560.59
2023-05-20T08:00:09.748Z,96554.56
2023-05-20T08:01:17.279Z,96548.25
2023-05-20T08:02:18.766Z,96555.72
2023-05-20T08:03:22.197Z,96551.72
2023-05-20T08:04:23.804Z,96548.44
2023-05-20T08:05:25.530Z,96551.94
2023-05-20T08:06:29.577Z,96541.19
2023-05-20T08:07:31.828Z,96540.03
2023-05-20T08:08:33.418Z,96544.56
2023-05-20T08:09:34.910Z,96548.06
2023-05-20T08:10:36.929Z,96544.47
2023-05-20T08:11:38.359Z,96544.78
2023-05-20T08:12:39.783Z,96543.16
2023-05-20T08:13:41.380Z,96550.69
2023-05-20T08:14:44.125Z,96544.09
2023-05-20T08:15:45.592Z,96549.81
2023-05-20T08:16:47.152Z,96539.91
2023-05-20T08:17:48.638Z,96541.06
2023-05-20T08:18:50.234Z,96536.25
2023-05-20T08:19:51.665Z,96542.50
2023-05-20T08:20:53.086Z,96537.47
2023-05-20T08:21:54.595Z,96536.88
2023-05-20T08:22:56.119Z,96540.31
2023-05-20T08:23:57.722Z,96536.50
2023-05-20T08:24:59.219Z,96538.59
2023-05-20T08:26:03.698Z,96536.88
2023-05-20T08:27:05.279Z,96534.25
2023-05-20T08:28:07.248Z,96543.13
2023-05-20T08:29:08.791Z,96538.72
2023-05-20T08:30:10.766Z,96533.16
2023-05-20T08:31:12.233Z,96531.72
2023-05-20T08:32:13.712Z,96538.09
2023-05-20T08:33:15.731Z,96534.44
2023-05-20T08:34:17.154Z,96545.06
2023-05-20T08:35:18.642Z,96550.13
2023-05-20T08:36:20.104Z,96550.38
2023-05-20T08:37:21.518Z,96551.06
2023-05-20T08:38:23.009Z,96555.66
2023-05-20T08:39:25.536Z,96551.31
2023-05-20T08:40:27.419Z,96552.28
2023-05-20T08:41:29.147Z,96551.84
2023-05-20T08:42:30.875Z,96549.47
2023-05-20T08:43:32.561Z,96550.56
2023-05-20T08:44:35.360Z,96549.56
2023-05-20T08:45:38.799Z,96559.00
2023-05-20T08:46:41.360Z,96554.03
2023-05-20T08:47:43.596Z,96557.28
2023-05-20T08:48:45.813Z,96557.25
2023-05-20T08:49:49.014Z,96561.66
2023-05-20T08:50:52.149Z,96554.44
2023-05-20T08:51:53.725Z,96550.63
2023-05-20T08:52:55.177Z,96561.53
2023-05-20T08:53:56.860Z,96560.88
2023-05-20T08:54:59.157Z,96569.41
2023-05-20T08:56:03.261Z,96567.47
2023-05-20T08:57:05.562Z,96556.00
2023-05-20T08:58:07.061Z,96564.00
2023-05-20T08:59:09.358Z,96555.59
2023-05-20T09:00:13.460Z,96556.13
2023-05-20T09:01:15.103Z,96564.88
2023-05-20T09:02:17.507Z,96554.84
2023-05-20T09:03:20.412Z,96558.28
2023-05-20T09:04:21.976Z,96559.63
2023-05-20T09:05:23.491Z,96549.44
2023-05-20T09:06:25.014Z,96559.50
2023-05-20T09:07:28.821Z,96563.25
2023-05-20T09:08:31.414Z,96565.75
2023-05-20T09:09:35.136Z,96557.59
2023-05-20T09:10:38.177Z,96562.50
2023-05-20T09:11:41.567Z,96554.19
2023-05-20T09:12:43.027Z,96558.06
2023-05-20T09:13:44.513Z,96561.03
2023-05-20T09:14:45.990Z,96554.44
2023-05-20T09:15:47.472Z,96550.44
2023-05-20T09:16:49.476Z,96549.50
2023-05-20T09:17:51.158Z,96555.66
2023-05-20T09:18:56.208Z,96556.84
2023-05-20T09:19:57.732Z,96552.25
2023-05-20T09:21:05.774Z,96552.25
2023-05-20T09:22:07.489Z,96541.22
2023-05-20T09:23:10.143Z,96542.69
2023-05-20T09:24:11.609Z,96532.53
2023-05-20T09:25:14.183Z,96541.16
2023-05-20T09:26:18.087Z,96532.31
2023-05-20T09:27:21.077Z,96536.16
2023-05-20T09:28:25.175Z,96548.38
2023-05-20T09:29:27.301Z,96538.16
2023-05-20T09:30:28.759Z,96541.78
2023-05-20T09:31:34.188Z,96535.66
2023-05-20T09:32:35.827Z,96535.66
2023-05-20T09:33:37.399Z,96540.34
2023-05-20T09:34:38.873Z,96537.38
2023-05-20T09:35:40.332Z,96544.16
2023-05-20T09:36:43.727Z,96523.84
2023-05-20T09:37:47.890Z,96526.47
2023-05-20T09:38:53.101Z,96533.38
2023-05-20T09:39:59.496Z,96533.31
2023-05-20T09:41:08.259Z,96528.63
2023-05-20T09:42:18.603Z,96532.75
2023-05-20T09:43:20.262Z,96522.03
2023-05-20T09:44:23.097Z,96524.84
2023-05-20T09:45:24.721Z,96516.78
2023-05-20T09:46:27.943Z,96520.91
2023-05-20T09:47:30.226Z,96524.41
2023-05-20T09:48:34.187Z,96527.72
2023-05-20T09:49:36.466Z,96523.00
2023-05-20T09:50:39.381Z,96526.44
2023-05-20T09:51:42.078Z,96530.13
2023-05-20T09:52:44.222Z,96502.38
2023-05-20T09:53:45.828Z,96519.75
2023-05-20T09:54:48.441Z,96519.38
2023-05-20T09:55:52.230Z,96524.31
2023-05-20T09:56:54.690Z,96522.53
2023-05-20T09:57:56.764Z,96526.25
2023-05-20T09:58:59.116Z,96521.53
2023-05-20T10:00:01.550Z,96525.78
2023-05-20T10:01:03.478Z,96528.13
2023-05-20T10:02:06.749Z,96515.34
2023-05-20T10:03:08.383Z,96527.13
2023-05-20T10:04:13.498Z,96520.47
2023-05-20T10:05:21.730Z,96526.22
2023-05-20T10:06:40.139Z,96520.25
2023-05-20T10:07:42.808Z,96517.16
2023-05-20T10:09:02.767Z,96518.78
2023-05-20T10:10:33.207Z,96516.44
2023-05-20T10:11:52.357Z,96518.44
2023-05-20T10:13:09.133Z,96506.81
2023-05-20T10:14:22.634Z,96519.41
2023-05-20T10:15:55.692Z,96508.78
2023-05-20T10:17:24.618Z,96509.00
2023-05-20T10:18:26.144Z,96505.94
2023-05-20T10:19:31.229Z,96507.59
2023-05-20T10:20:32.953Z,96506.97
2023-05-20T10:21:34.381Z,96509.72
2023-05-20T10:22:36.171Z,96512.44
2023-05-20T10:23:37.722Z,96519.00
2023-05-20T10:24:41.524Z,96509.66
2023-05-20T10:25:54.179Z,96518.91
2023-05-20T10:26:55.634Z,96514.25
2023-05-20T10:28:09.512Z,96506.59
2023-05-20T10:29:22.787Z,96496.94
2023-05-20T10:30:24.269Z,96499.19
2023-05-20T10:31:26.081Z,96497.28
2023-05-20T10:32:31.145Z,96496.16
2023-05-20T10:33:42.673Z,96497.97
2023-05-20T10:34:50.646Z,96498.97
2023-05-20T10:35:52.394Z,96497.78
2023-05-20T10:36:53.832Z,96500.72
2023-05-20T10:38:07.302Z,96500.41
2023-05-20T10:39:18.445Z,96492.78
2023-05-20T10:40:21.489Z,96494.91
2023-05-20T10:41:27.951Z,96497.44
2023-05-20T10:42:32.278Z,96492.28
2023-05-20T10:43:33.727Z,96496.66
2023-05-20T10:44:45.574Z,96490.34
2023-05-20T10:45:51.913Z,96490.72
2023-05-20T10:47:23.817Z,96494.63
2023-05-20T10:48:28.986Z,96491.25
2023-05-20T10:49:35.176Z,96486.09
2023-05-20T10:50:38.335Z,96487.38
2023-05-20T10:51:39.994Z,96486.97
2023-05-20T10:52:41.606Z,96489.38
2023-05-20T10:53:46.195Z,96472.81
2023-05-20T10:54:58.084Z,96488.03
2023-05-20T10:55:59.585Z,96483.53
2023-05-20T10:57:06.136Z,96488.00
2023-05-20T10:58:07.998Z,96482.69
2023-05-20T10:59:10.008Z,96481.88
2023-05-20T11:00:13.276Z,96484.84
2023-05-20T11:01:16.872Z,96476.81
2023-05-20T11:02:19.727Z,96471.88
2023-05-20T11:03:25.278Z,96481.47
2023-05-20T11:04:28.658Z,96484.22
2023-05-20T11:05:31.977Z,96484.56
2023-05-20T11:06:34.176Z,96483.16
2023-05-20T11:07:35.621Z,96468.91
2023-05-20T11:08:37.061Z,96479.09
2023-05-20T11:09:39.035Z,96478.13
2023-05-20T11:10:42.381Z,96467.63
2023-05-20T11:11:43.902Z,96480.09
2023-05-20T11:12:45.652Z,96482.59
2023-05-20T11:13:51.953Z,96473.53
2023-05-20T11:14:54.046Z,96476.72
2023-05-20T11:15:55.712Z,96472.38
2023-05-20T11:16:59.074Z,96465.53
2023-05-20T11:18:04.974Z,96464.28
2023-05-20T11:19:15.593Z,96463.44
2023-05-20T11:20:17.063Z,96462.81
2023-05-20T11:21:19.940Z,96456.44
2023-05-20T11:22:21.761Z,96451.94
2023-05-20T11:23:23.804Z,96452.22
2023-05-20T11:24:27.361Z,96457.81
2023-05-20T11:25:29.001Z,96456.69
2023-05-20T11:26:31.874Z,96452.13
2023-05-20T11:27:34.189Z,96453.63
2023-05-20T11:28:36.226Z,96447.81
2023-05-20T11:29:40.723Z,96446.16
2023-05-20T11:30:45.473Z,96452.09
2023-05-20T11:31:49.809Z,96458.59
2023-05-20T11:33:01.691Z,96458.69
2023-05-20T11:34:04.283Z,96457.28
2023-05-20T11:35:07.399Z,96452.84
2023-05-20T11:36:26.279Z,96451.47
2023-05-20T11:37:28.996Z,96454.06
2023-05-20T11:38:30.609Z,96459.63
2023-05-20T11:39:32.955Z,96451.28
2023-05-20T11:40:46.273Z,96459.44
2023-05-20T11:41:51.764Z,96461.47
2023-05-20T11:42:58.138Z,96457.19
2023-05-20T11:44:00.576Z,96448.94
2023-05-20T11:45:02.768Z,96443.88
2023-05-20T11:46:05.455Z,96442.66
2023-05-20T11:47:06.904Z,96437.78
2023-05-20T11:48:09.390Z,96435.97
2023-05-20T11:49:10.948Z,96430.75
2023-05-20T11:50:18.607Z,96436.72
2023-05-20T11:51:29.507Z,96437.47
2023-05-20T11:52:33.838Z,96442.25
2023-05-20T11:53:35.326Z,96443.41
2023-05-20T11:54:36.763Z,96446.72
2023-05-20T11:55:56.020Z,96440.22
2023-05-20T11:56:58.851Z,96446.91
2023-05-20T11:58:01.617Z,96443.25
2023-05-20T11:59:05.220Z,96446.97
2023-05-20T12:00:09.981Z,96436.59
2023-05-20T12:01:21.518Z,96433.91
2023-05-20T12:02:24.478Z,96438.81
2023-05-20T12:03:26.260Z,96435.88
2023-05-20T12:04:27.924Z,96433.13
2023-05-20T12:05:29.376Z,96429.72
2023-05-20T12:06:31.595Z,96425.84
2023-05-20T12:07:33.013Z,96433.03
2023-05-20T12:08:34.523Z,96430.28
2023-05-20T12:09:36.091Z,96432.63
2023-05-20T12:10:38.064Z,96427.16
2023-05-20T12:11:41.588Z,96426.03
2023-05-20T12:12:45.392Z,96425.41
2023-05-20T12:13:46.959Z,96424.19
2023-05-20T12:14:48.369Z,96422.88
2023-05-20T12:15:49.811Z,96433.03
2023-05-20T12:16:52.624Z,96433.53
2023-05-20T12:17:54.209Z,96427.84
2023-05-20T12:18:55.787Z,96431.88
2023-05-20T12:19:57.380Z,96433.72
2023-05-20T12:20:59.614Z,96433.19
2023-05-20T12:22:02.418Z,96426.78
2023-05-20T12:23:04.594Z,96426.56
2023-05-20T12:24:08.271Z,96426.09
2023-05-20T12:25:12.157Z,96416.66
2023-05-20T12:26:13.641Z,96414.41
2023-05-20T12:27:15.034Z,96417.19
2023-05-20T12:28:17.605Z,96423.25
2023-05-20T12:29:19.737Z,96416.53
2023-05-20T12:30:22.962Z,96410.84
2023-05-20T12:31:25.740Z,96411.44
2023-05-20T12:32:27.199Z,96417.25
2023-05-20T12:33:28.720Z,96416.91
2023-05-20T12:34:30.548Z,96421.09
2023-05-20T12:35:39.202Z,96420.16
2023-05-20T12:36:40.651Z,96412.50
2023-05-20T12:37:43.167Z,96413.88
2023-05-20T12:38:44.678Z,96414.03
2023-05-20T12:39:46.598Z,96418.53
2023-05-20T12:40:48.124Z,96422.72
2023-05-20T12:41:49.578Z,96421.75
2023-05-20T12:42:51.302Z,96417.75
2023-05-20T12:43:52.753Z,96417.75
2023-05-20T12:44:54.228Z,96417.94
2023-05-20T12:45:56.155Z,96415.44
2023-05-20T12:46:57.613Z,96411.22
2023-05-20T12:47:59.564Z,96408.06
2023-05-20T12:49:01.442Z,96413.13
2023-05-20T12:50:03.750Z,96410.53
2023-05-20T12:51:05.869Z,96410.72
2023-05-20T12:52:11.837Z,96408.34
2023-05-20T12:53:20.587Z,96405.44
2023-05-20T12:54:22.031Z,96407.19
2023-05-20T12:55:23.632Z,96397.44
2023-05-20T12:56:26.361Z,96401.44
2023-05-20T12:57:28.056Z,96400.25
2023-05-20T12:58:29.582Z,96400.38
2023-05-20T12:59:30.995Z,96401.59
2023-05-20T13:00:32.666Z,96404.75
2023-05-20T13:01:34.432Z,96400.25
2023-05-20T13:02:39.672Z,96398.00
2023-05-20T13:03:41.455Z,96392.94
2023-05-20T13:04:42.958Z,96402.75
2023-05-20T13:05:44.492Z,96404.03
2023-05-20T13:06:45.928Z,96405.19
2023-05-20T13:07:47.340Z,96378.63
2023-05-20T13:08:48.809Z,96395.63
2023-05-20T13:09:50.414Z,96400.97
2023-05-20T13:10:51.864Z,96393.38
2023-05-20T13:11:53.337Z,96381.13
2023-05-20T13:12:54.756Z,96382.97
2023-05-20T13:13:59.384Z,96387.84
2023-05-20T13:15:00.848Z,96382.66
2023-05-20T13:16:02.758Z,96371.50
2023-05-20T13:17:04.598Z,96392.53
2023-05-20T13:18:07.046Z,96389.00
2023-05-20T13:19:08.795Z,96382.69
2023-05-20T13:20:11.054Z,96392.34
2023-05-20T13:21:12.438Z,96375.44
2023-05-20T13:22:13.905Z,96385.91
2023-05-20T13:23:15.444Z,96385.59
2023-05-20T13:24:18.058Z,96375.03
2023-05-20T13:25:19.556Z,96379.03
2023-05-20T13:26:21.863Z,96374.78
2023-05-20T13:27:23.314Z,96364.56
2023-05-20T13:28:24.745Z,96373.91
2023-05-20T13:29:26.758Z,96379.75
2023-05-20T13:30:28.642Z,96380.25
2023-05-20T13:31:30.130Z,96375.88
2023-05-20T13:32:31.711Z,96366.09
2023-05-20T13:33:33.128Z,96368.44
2023-05-20T13:34:34.584Z,96371.88
2023-05-20T13:35:45.327Z,96373.91
2023-05-20T13:36:48.008Z,96373.56
2023-05-20T13:37:49.548Z,96370.84
2023-05-20T13:38:51.478Z,96369.47
2023-05-20T13:39:52.962Z,96362.69
2023-05-20T13:40:54.512Z,96381.44
2023-05-20T13:41:56.400Z,96370.78
2023-05-20T13:42:58.704Z,96379.28
2023-05-20T13:44:00.073Z,96368.25
2023-05-20T13:45:01.827Z,96360.63
2023-05-20T13:46:03.397Z,96371.81
2023-05-20T13:47:05.219Z,96367.78
2023-05-20T13:48:06.852Z,96369.47
2023-05-20T13:49:14.171Z,96364.19
2023-05-20T13:50:19.925Z,96366.25
2023-05-20T13:51:21.529Z,96360.66
2023-05-20T13:52:22.939Z,96359.66
2023-05-20T13:53:24.646Z,96353.97
2023-05-20T13:54:26.158Z,96362.78
2023-05-20T13:55:28.268Z,96352.13
2023-05-20T13:56:29.892Z,96351.84
2023-05-20T13:57:31.479Z,96354.50
2023-05-20T13:58:32.899Z,96346.22
2023-05-20T13:59:35.061Z,96352.00
2023-05-20T14:00:37.330Z,96345.94
2023-05-20T14:01:41.171Z,96345.38
2023-05-20T14:02:42.970Z,96343.13
2023-05-20T14:03:45.052Z,96348.53
2023-05-20T14:04:47.082Z,96349.13
2023-05-20T14:05:48.553Z,96336.81
2023-05-20T14:06:50.071Z,96341.78
2023-05-20T14:07:51.595Z,96339.66
2023-05-20T14:08:55.186Z,96334.50
2023-05-20T14:09:56.716Z,96331.34
2023-05-20T14:10:58.442Z,96330.16
2023-05-20T14:11:59.908Z,96329.53
2023-05-20T14:13:02.148Z,96330.00
2023-05-20T14:14:03.603Z,96333.19
2023-05-20T14:15:05.570Z,96324.16
2023-05-20T14:16:07.478Z,96324.34
2023-05-20T14:17:09.054Z,96331.78
2023-05-20T14:18:11.774Z,96317.88
2023-05-20T14:19:13.462Z,96326.66
2023-05-20T14:20:15.742Z,96320.72
2023-05-20T14:21:17.143Z,96325.41
2023-05-20T14:22:19.878Z,96327.84
2023-05-20T14:23:21.461Z,96322.97
2023-05-20T14:24:23.905Z,96318.50
2023-05-20T14:25:25.748Z,96328.22
2023-05-20T14:26:27.191Z,96324.22
2023-05-20T14:27:30.396Z,96312.78
2023-05-20T14:28:31.802Z,96312.56
2023-05-20T14:29:33.220Z,96326.81
2023-05-20T14:30:34.994Z,96314.31
2023-05-20T14:31:38.616Z,96314.94
2023-05-20T14:32:40.758Z,96307.06
2023-05-20T14:33:42.256Z,96309.59
2023-05-20T14:34:43.734Z,96317.41
2023-05-20T14:35:45.544Z,96312.06
2023-05-20T14:36:47.601Z,96311.41
2023-05-20T14:37:49.187Z,96316.75
2023-05-20T14:38:50.725Z,96315.63
2023-05-20T14:39:52.285Z,96319.19
2023-05-20T14:40:53.708Z,96317.59
2023-05-20T14:41:55.155Z,96314.06
2023-05-20T14:42:56.660Z,96299.69
2023-05-20T14:43:58.199Z,96306.56
2023-05-20T14:44:59.698Z,96308.41
2023-05-20T14:46:02.591Z,96308.16
2023-05-20T14:47:04.760Z,96304.28
2023-05-20T14:48:07.035Z,96304.97
2023-05-20T14:49:08.549Z,96305.28
2023-05-20T14:50:10.680Z,96275.25
2023-05-20T14:51:12.369Z,96301.34
2023-05-20T14:52:13.810Z,96307.22
2023-05-20T14:53:16.679Z,96307.22
2023-05-20T14:54:19.104Z,96313.41
2023-05-20T14:55:20.552Z,96314.78
2023-05-20T14:56:22.720Z,96300.06
2023-05-20T14:57:24.149Z,96302.31
2023-05-20T14:58:26.044Z,96298.31
2023-05-20T14:59:27.697Z,96298.72
2023-05-20T15:00:29.116Z,96296.25
2023-05-20T15:01:30.785Z,96303.03
2023-05-20T15:02:32.327Z,96303.22
2023-05-20T15:03:33.850Z,96303.59
2023-05-20T15:04:35.540Z,96303.72
2023-05-20T15:05:37.053Z,96308.00
2023-05-20T15:06:38.769Z,96308.66
2023-05-20T15:07:40.257Z,96305.22
2023-05-20T15:08:42.175Z,96305.63
2023-05-20T15:09:43.954Z,96298.59
2023-05-20T15:10:45.706Z,96302.78
2023-05-20T15:11:47.168Z,96304.63
2023-05-20T15:12:48.642Z,96304.63
2023-05-20T15:13:51.341Z,96301.41
2023-05-20T15:14:52.751Z,96308.47
2023-05-20T15:15:54.291Z,96299.47
2023-05-20T15:16:55.830Z,96308.50
2023-05-20T15:17:57.573Z,96310.81
2023-05-20T15:18:59.145Z,96310.16
2023-05-20T15:20:00.715Z,96308.47
2023-05-20T15:21:02.280Z,96314.38
2023-05-20T15:22:03.997Z,96315.94
2023-05-20T15:23:05.499Z,96318.63
2023-05-20T15:24:06.944Z,96324.25
2023-05-20T15:25:08.417Z,96319.25
2023-05-20T15:26:12.044Z,96321.75
2023-05-20T15:27:13.506Z,96325.41
2023-05-20T15:28:19.396Z,96319.09
2023-05-20T15:29:24.439Z,96322.09
2023-05-20T15:30:25.893Z,96320.88
2023-05-20T15:31:27.342Z,96322.69
2023-05-20T15:32:28.891Z,96315.84
2023-05-20T15:33:30.682Z,96319.88
2023-05-20T15:34:32.149Z,96314.09
2023-05-20T15:35:33.563Z,96307.44
2023-05-20T15:36:34.993Z,96310.38
2023-05-20T15:37:36.450Z,96312.91
2023-05-20T15:38:37.856Z,96306.97
2023-05-20T15:39:39.405Z,96308.53
2023-05-20T15:40:41.398Z,96316.38
2023-05-20T15:41:43.202Z,96308.16
2023-05-20T15:42:44.582Z,96312.22
2023-05-20T15:43:46.026Z,96322.22
2023-05-20T15:44:47.485Z,96323.44
2023-05-20T15:45:48.985Z,96322.00
2023-05-20T15:46:50.440Z,96317.22
2023-05-20T15:47:51.953Z,96322.19
2023-05-20T15:48:56.110Z,96322.19
2023-05-20T15:49:57.964Z,96324.31
2023-05-20T15:50:59.362Z,96325.34
2023-05-20T15:52:03.476Z,96319.00
2023-05-20T15:53:14.805Z,96313.50
2023-05-20T15:54:16.217Z,96316.84
2023-05-20T15:55:17.831Z,96317.09
2023-05-20T15:56:19.490Z,96317.28
2023-05-20T15:57:20.938Z,96315.16
2023-05-20T15:58:22.403Z,96311.09
2023-05-20T15:59:24.194Z,96315.75
2023-05-20T16:00:25.739Z,96319.75
2023-05-20T16:01:28.739Z,96316.72
2023-05-20T16:03:33.512Z,96309.25
2023-05-20T16:04:35.074Z,96310.56
2023-05-20T16:05:37.336Z,96317.97
2023-05-20T16:06:38.789Z,96308.38
2023-05-20T16:07:42.119Z,96317.78
2023-05-20T16:08:43.578Z,96321.44
2023-05-20T16:09:45.022Z,96308.06
2023-05-20T16:10:46.511Z,96318.75
2023-05-20T16:11:48.011Z,96319.59
2023-05-20T16:12:49.384Z,96316.22
2023-05-20T16:13:50.818Z,96310.78
2023-05-20T16:14:52.397Z,96314.16
2023-05-20T16:15:57.477Z,96312.06
2023-05-20T16:16:58.977Z,96321.22
2023-05-20T16:18:00.412Z,96316.09
2023-05-20T16:19:01.941Z,96321.06
2023-05-20T16:20:06.867Z,96318.25
2023-05-20T16:21:08.278Z,96318.03
2023-05-20T16:22:09.720Z,96318.75
2023-05-20T16:23:11.353Z,96319.81
2023-05-20T16:24:12.879Z,96314.00
2023-05-20T16:25:14.601Z,96309.50
2023-05-20T16:26:16.179Z,96309.88
2023-05-20T16:27:17.662Z,96315.69
2023-05-20T16:28:19.206Z,96312.44
2023-05-20T16:29:20.913Z,96308.34
2023-05-20T16:30:22.306Z,96306.22
2023-05-20T16:31:23.922Z,96303.94
2023-05-20T16:32:25.737Z,96313.22
2023-05-20T16:33:27.239Z,96301.16
2023-05-20T16:34:28.755Z,96309.16
2023-05-20T16:35:30.428Z,96302.75
2023-05-20T16:36:31.973Z,96307.00
2023-05-20T16:37:34.664Z,96304.97
2023-05-20T16:38:36.440Z,96299.66
2023-05-20T16:39:37.834Z,96306.88
2023-05-20T16:40:39.301Z,96305.28
2023-05-20T16:41:41.529Z,96295.84
2023-05-20T16:42:44.175Z,96303.69
2023-05-20T16:43:45.617Z,96308.88
2023-05-20T16:44:49.958Z,96301.56
2023-05-20T16:45:51.690Z,96305.22
2023-05-20T16:46:54.291Z,96305.44
2023-05-20T16:47:56.441Z,96304.06
2023-05-20T16:48:57.998Z,96305.56
2023-05-20T16:49:59.439Z,96297.44
2023-05-20T16:51:01.122Z,96298.22
2023-05-20T16:52:03.039Z,96310.38
2023-05-20T16:53:04.638Z,96296.78
2023-05-20T16:54:06.357Z,96301.97
2023-05-20T16:55:08.499Z,96302.94
2023-05-20T16:56:15.984Z,96302.75
2023-05-20T16:57:18.781Z,96297.53
2023-05-20T16:58:20.223Z,96300.59
2023-05-20T16:59:24.853Z,96296.66
2023-05-20T17:00:26.764Z,96304.09
2023-05-20T17:01:28.991Z,96300.34
2023-05-20T17:02:30.928Z,96301.38
2023-05-20T17:03:32.513Z,96302.50
2023-05-20T17:04:33.962Z,96308.06
2023-05-20T17:05:35.574Z,96309.88
2023-05-20T17:06:39.712Z,96312.28
2023-05-20T17:07:41.183Z,96313.84
